createdAt,value
2022-10-12T00:00:39.825Z,99.18
2022-10-12T00:03:06.351Z,100.00
2022-10-12T00:05:32.820Z,100.00
2022-10-12T00:07:59.459Z,100.00
2022-10-12T00:10:25.973Z,100.00
2022-10-12T00:12:52.443Z,100.00
2022-10-12T00:15:19.003Z,100.00
2022-10-12T00:17:45.453Z,100.00
2022-10-12T00:20:12.292Z,100.00
2022-10-12T00:22:38.729Z,100.00
2022-10-12T00:25:05.677Z,100.00
2022-10-12T00:27:32.230Z,100.00
2022-10-12T00:29:58.720Z,100.00
2022-10-12T00:32:25.241Z,100.00
2022-10-12T00:34:51.789Z,100.00
2022-10-12T00:37:18.246Z,100.00
2022-10-12T00:39:44.823Z,100.00
2022-10-12T00:42:12.038Z,100.00
2022-10-12T00:44:44.889Z,100.00
2022-10-12T00:47:37.335Z,100.00
2022-10-12T00:50:18.318Z,100.00
2022-10-12T00:53:14.176Z,100.00
2022-10-12T00:55:47.555Z,100.00
2022-10-12T00:58:14.357Z,100.00
2022-10-12T01:00:41.967Z,100.00
2022-10-12T01:03:12.785Z,100.00
2022-10-12T01:05:40.433Z,100.00
2022-10-12T01:08:07.050Z,100.00
2022-10-12T01:10:33.565Z,100.00
2022-10-12T01:13:00.685Z,100.00
2022-10-12T01:15:34.377Z,100.00
2022-10-12T01:18:14.574Z,100.00
2022-10-12T01:20:49.772Z,100.00
2022-10-12T01:23:28.039Z,100.00
2022-10-12T01:26:17.056Z,100.00
2022-10-12T01:29:02.608Z,100.00
2022-10-12T01:31:38.039Z,100.00
2022-10-12T01:34:16.759Z,100.00
2022-10-12T01:36:48.825Z,100.00
2022-10-12T01:39:24.776Z,100.00
2022-10-12T01:41:56.853Z,100.00
2022-10-12T01:44:25.292Z,100.00
2022-10-12T01:46:54.049Z,100.00
2022-10-12T01:49:30.607Z,100.00
2022-10-12T01:52:21.271Z,100.00
2022-10-12T01:55:02.602Z,100.00
2022-10-12T01:57:49.904Z,100.00
2022-10-12T02:00:17.365Z,100.00
2022-10-12T02:02:46.795Z,100.00
2022-10-12T02:05:19.153Z,100.00
2022-10-12T02:07:54.125Z,100.00
2022-10-12T02:10:46.352Z,100.00
2022-10-12T02:13:15.201Z,100.00
2022-10-12T02:15:43.375Z,100.00
2022-10-12T02:18:14.519Z,100.00
2022-10-12T02:20:42.343Z,100.00
2022-10-12T02:23:10.422Z,100.00
2022-10-12T02:25:36.966Z,100.00
2022-10-12T02:28:13.737Z,100.00
2022-10-12T02:31:01.787Z,100.00
2022-10-12T02:33:56.827Z,100.00
2022-10-12T02:36:35.429Z,100.00
2022-10-12T02:39:09.380Z,100.00
2022-10-12T02:41:46.467Z,100.00
2022-10-12T02:44:20.309Z,100.00
2022-10-12T02:46:49.567Z,100.00
2022-10-12T02:49:17.734Z,100.00
2022-10-12T02:51:45.357Z,100.00
2022-10-12T02:54:12.686Z,100.00
2022-10-12T02:56:45.303Z,100.00
2022-10-12T02:59:13.779Z,100.00
2022-10-12T03:01:41.501Z,100.00
2022-10-12T03:04:08.842Z,100.00
2022-10-12T03:06:35.330Z,100.00
2022-10-12T03:09:02.043Z,100.00
2022-10-12T03:11:28.650Z,100.00
2022-10-12T03:13:55.827Z,100.00
2022-10-12T03:16:23.275Z,100.00
2022-10-12T03:18:50.105Z,100.00
2022-10-12T03:21:17.047Z,99.97
2022-10-12T03:23:43.495Z,100.00
2022-10-12T03:26:09.942Z,100.00
2022-10-12T03:28:36.507Z,100.00
2022-10-12T03:31:03.700Z,100.00
2022-10-12T03:33:30.165Z,100.00
2022-10-12T03:35:56.705Z,100.00
2022-10-12T03:38:23.156Z,100.00
2022-10-12T03:40:49.605Z,100.00
2022-10-12T03:43:17.159Z,100.00
2022-10-12T03:45:43.620Z,100.00
2022-10-12T03:48:10.115Z,100.00
2022-10-12T03:50:36.761Z,100.00
2022-10-12T03:53:05.093Z,100.00
2022-10-12T03:55:32.208Z,100.00
2022-10-12T03:57:58.748Z,100.00
2022-10-12T04:00:25.962Z,100.00
2022-10-12T04:02:52.518Z,100.00
2022-10-12T04:05:18.942Z,100.00
2022-10-12T04:07:45.524Z,100.00
2022-10-12T04:10:12.180Z,100.00
2022-10-12T04:12:38.657Z,100.00
2022-10-12T04:15:05.692Z,100.00
2022-10-12T04:17:32.186Z,100.00
2022-10-12T04:19:58.630Z,100.00
2022-10-12T04:22:25.186Z,100.00
2022-10-12T04:24:51.766Z,100.00
2022-10-12T04:27:18.267Z,100.00
2022-10-12T04:29:44.876Z,100.00
2022-10-12T04:32:12.635Z,100.00
2022-10-12T04:34:39.345Z,100.00
2022-10-12T04:37:05.891Z,100.00
2022-10-12T04:39:32.393Z,100.00
2022-10-12T04:41:58.858Z,100.00
2022-10-12T04:44:29.708Z,100.00
2022-10-12T04:46:58.663Z,100.00
2022-10-12T04:49:25.133Z,100.00
2022-10-12T04:51:51.567Z,100.00
2022-10-12T04:54:18.072Z,100.00
2022-10-12T04:56:47.938Z,100.00
2022-10-12T04:59:15.210Z,100.00
2022-10-12T05:01:41.986Z,100.00
2022-10-12T05:04:08.579Z,100.00
2022-10-12T05:06:35.039Z,100.00
2022-10-12T05:09:01.629Z,100.00
2022-10-12T05:11:28.094Z,100.00
2022-10-12T05:13:54.562Z,100.00
2022-10-12T05:16:21.296Z,100.00
2022-10-12T05:18:47.911Z,100.00
2022-10-12T05:21:14.508Z,100.00
2022-10-12T05:23:40.961Z,100.00
2022-10-12T05:27:10.813Z,100.00
2022-10-12T05:29:37.244Z,100.00
2022-10-12T05:32:03.845Z,100.00
2022-10-12T05:34:30.234Z,100.00
2022-10-12T05:36:58.157Z,100.00
2022-10-12T05:39:24.824Z,100.00
2022-10-12T05:41:54.134Z,100.00
2022-10-12T05:44:20.846Z,100.00
2022-10-12T05:46:47.229Z,100.00
2022-10-12T05:49:13.673Z,100.00
2022-10-12T05:51:40.684Z,99.29
2022-10-12T05:54:07.196Z,100.00
2022-10-12T05:56:33.572Z,100.00
2022-10-12T05:59:00.009Z,100.00
2022-10-12T06:01:26.461Z,100.00
2022-10-12T06:03:54.685Z,100.00
2022-10-12T06:06:21.924Z,100.00
2022-10-12T06:08:48.485Z,100.00
2022-10-12T06:11:14.980Z,100.00
2022-10-12T06:13:41.397Z,100.00
2022-10-12T06:16:07.862Z,100.00
2022-10-12T06:18:34.351Z,100.00
2022-10-12T06:23:47.236Z,99.83
2022-10-12T06:26:13.789Z,99.36
2022-10-12T06:28:40.238Z,99.72
2022-10-12T06:31:06.782Z,98.98
2022-10-12T06:33:33.218Z,100.00
2022-10-12T06:35:59.604Z,100.00
2022-10-12T06:38:26.103Z,100.00
2022-10-12T06:40:53.525Z,100.00
2022-10-12T06:43:22.619Z,100.00
2022-10-12T06:45:49.695Z,100.00
2022-10-12T06:48:18.671Z,100.00
2022-10-12T06:50:47.101Z,100.00
2022-10-12T06:53:13.547Z,97.71
2022-10-12T06:55:40.364Z,95.14
2022-10-12T06:58:06.772Z,94.51
2022-10-12T07:00:33.204Z,94.42
2022-10-12T07:02:59.655Z,94.37
2022-10-12T07:05:26.136Z,94.29
2022-10-12T07:07:52.624Z,94.76
2022-10-12T07:10:19.221Z,93.73
2022-10-12T07:12:45.702Z,95.18
2022-10-12T07:15:12.305Z,96.39
2022-10-12T07:17:39.120Z,95.61
2022-10-12T07:20:06.189Z,96.70
2022-10-12T07:22:33.084Z,91.80
2022-10-12T07:24:59.630Z,91.35
2022-10-12T07:27:26.140Z,90.77
2022-10-12T07:29:52.646Z,90.61
2022-10-12T07:32:19.079Z,93.12
2022-10-12T07:34:45.611Z,93.71
2022-10-12T07:37:12.623Z,93.43
2022-10-12T07:39:41.412Z,94.64
2022-10-12T07:42:08.154Z,95.13
2022-10-12T07:44:34.756Z,93.83
2022-10-12T07:47:01.439Z,95.01
2022-10-12T07:49:27.976Z,94.48
2022-10-12T07:51:54.420Z,94.05
2022-10-12T07:54:25.611Z,94.17
2022-10-12T07:56:55.621Z,90.99
2022-10-12T07:59:22.293Z,90.49
2022-10-12T08:01:48.845Z,90.26
2022-10-12T08:04:15.401Z,90.45
2022-10-12T08:06:43.805Z,90.74
2022-10-12T08:09:10.315Z,90.25
2022-10-12T08:11:41.044Z,87.91
2022-10-12T08:14:13.736Z,85.54
2022-10-12T08:16:42.155Z,85.59
2022-10-12T08:19:08.742Z,84.83
2022-10-12T08:21:35.339Z,83.36
2022-10-12T08:24:01.830Z,83.14
2022-10-12T08:26:29.189Z,82.15
2022-10-12T08:28:56.952Z,82.21
2022-10-12T08:31:23.604Z,80.61
2022-10-12T08:33:50.218Z,79.32
2022-10-12T08:36:16.826Z,74.16
2022-10-12T08:38:43.848Z,75.56
2022-10-12T08:41:22.723Z,74.64
2022-10-12T08:43:58.269Z,75.98
2022-10-12T08:46:26.756Z,74.96
2022-10-12T08:49:13.086Z,73.70
2022-10-12T08:51:51.968Z,70.83
2022-10-12T08:54:27.176Z,69.66
2022-10-12T08:56:54.907Z,68.83
2022-10-12T08:59:23.245Z,71.86
2022-10-12T09:02:29.675Z,69.92
2022-10-12T09:05:18.335Z,69.80
2022-10-12T09:08:10.996Z,70.80
2022-10-12T09:10:59.601Z,72.69
2022-10-12T09:13:42.935Z,71.64
2022-10-12T09:16:25.325Z,70.91
2022-10-12T09:18:58.743Z,71.97
2022-10-12T09:21:33.393Z,74.57
2022-10-12T09:24:25.130Z,73.46
2022-10-12T09:27:13.625Z,74.00
2022-10-12T09:29:47.326Z,71.33
2022-10-12T09:32:36.528Z,70.41
2022-10-12T09:35:06.405Z,71.44
2022-10-12T09:37:35.504Z,71.80
2022-10-12T09:40:05.026Z,68.46
2022-10-12T09:42:34.057Z,70.87
2022-10-12T09:45:21.558Z,73.18
2022-10-12T09:48:47.871Z,72.04
2022-10-12T09:51:16.578Z,70.05
2022-10-12T09:54:05.403Z,68.67
2022-10-12T09:57:07.534Z,69.58
2022-10-12T09:59:42.808Z,71.06
2022-10-12T10:02:23.013Z,71.48
2022-10-12T10:04:54.580Z,72.21
2022-10-12T10:07:35.797Z,72.43
2022-10-12T10:10:32.000Z,69.47
2022-10-12T10:13:06.304Z,67.43
2022-10-12T10:15:39.271Z,66.75
2022-10-12T10:18:23.810Z,63.94
2022-10-12T10:21:17.662Z,64.40
2022-10-12T10:24:00.996Z,67.35
2022-10-12T10:26:56.723Z,66.71
2022-10-12T10:29:28.531Z,67.24
2022-10-12T10:32:12.873Z,65.85
2022-10-12T10:34:41.848Z,68.70
2022-10-12T10:37:19.665Z,66.16
2022-10-12T10:39:49.769Z,67.05
2022-10-12T10:42:20.591Z,64.60
2022-10-12T10:44:58.542Z,60.57
2022-10-12T10:47:25.411Z,61.00
2022-10-12T10:49:57.229Z,61.67
2022-10-12T10:52:33.274Z,64.11
2022-10-12T10:55:19.115Z,61.81
2022-10-12T10:58:03.501Z,63.52
2022-10-12T11:00:39.139Z,61.31
2022-10-12T11:03:52.343Z,62.01
2022-10-12T11:06:24.934Z,62.33
2022-10-12T11:09:00.356Z,63.76
2022-10-12T11:11:31.228Z,65.30
2022-10-12T11:14:42.734Z,63.49
2022-10-12T11:17:31.256Z,64.13
2022-10-12T11:20:20.055Z,65.58
2022-10-12T11:23:10.530Z,63.02
2022-10-12T11:25:49.305Z,62.69
2022-10-12T11:28:16.498Z,63.77
2022-10-12T11:30:50.501Z,64.73
2022-10-12T11:33:27.685Z,64.38
2022-10-12T11:35:55.313Z,65.55
2022-10-12T11:38:37.742Z,63.79
2022-10-12T11:41:34.500Z,64.86
2022-10-12T11:44:03.850Z,65.64
2022-10-12T11:46:48.924Z,67.25
2022-10-12T11:49:37.139Z,67.04
2022-10-12T11:52:09.948Z,66.02
2022-10-12T11:55:06.429Z,66.36
2022-10-12T11:57:37.897Z,67.17
2022-10-12T12:00:19.426Z,67.14
2022-10-12T12:02:54.446Z,66.55
2022-10-12T12:05:21.255Z,66.42
2022-10-12T12:07:59.309Z,66.38
2022-10-12T12:10:31.117Z,66.02
2022-10-12T12:13:23.033Z,65.51
2022-10-12T12:15:52.596Z,66.66
2022-10-12T12:18:22.090Z,64.85
2022-10-12T12:20:48.579Z,64.91
2022-10-12T12:23:54.460Z,62.71
2022-10-12T12:26:26.932Z,59.04
2022-10-12T12:29:26.542Z,60.67
2022-10-12T12:32:01.661Z,62.83
2022-10-12T12:34:28.760Z,63.43
2022-10-12T12:36:55.335Z,63.13
2022-10-12T12:39:26.229Z,64.12
2022-10-12T12:42:01.679Z,64.88
2022-10-12T12:44:37.991Z,66.66
2022-10-12T12:47:26.144Z,65.87
2022-10-12T12:50:00.959Z,66.83
2022-10-12T12:52:34.686Z,68.77
2022-10-12T12:55:16.434Z,66.52
2022-10-12T12:58:20.676Z,67.48
2022-10-12T13:01:09.016Z,69.65
2022-10-12T13:04:09.760Z,69.99
2022-10-12T13:07:06.431Z,70.45
2022-10-12T13:09:47.183Z,72.22
2022-10-12T13:12:28.905Z,70.87
2022-10-12T13:15:18.582Z,70.55
2022-10-12T13:18:18.687Z,72.27
2022-10-12T13:20:57.519Z,71.93
2022-10-12T13:23:27.087Z,69.86
2022-10-12T13:25:59.025Z,70.40
2022-10-12T13:28:29.810Z,70.83
2022-10-12T13:31:04.455Z,70.67
2022-10-12T13:33:40.697Z,69.52
2022-10-12T13:36:23.629Z,69.48
2022-10-12T13:38:56.061Z,69.86
2022-10-12T13:41:25.500Z,71.47
2022-10-12T13:43:58.353Z,71.13
2022-10-12T13:46:44.627Z,71.66
2022-10-12T13:49:29.436Z,72.03
2022-10-12T13:52:15.825Z,72.47
2022-10-12T13:54:47.399Z,72.50
2022-10-12T13:57:19.859Z,74.20
2022-10-12T13:59:49.884Z,73.39
2022-10-12T14:02:21.551Z,72.96
2022-10-12T14:04:48.049Z,73.92
2022-10-12T14:07:32.125Z,72.41
2022-10-12T14:10:05.909Z,74.58
2022-10-12T14:12:34.946Z,74.06
2022-10-12T14:15:02.674Z,73.74
2022-10-12T14:17:30.217Z,74.53
2022-10-12T14:20:13.770Z,73.74
2022-10-12T14:22:47.238Z,73.37
2022-10-12T14:25:20.338Z,73.66
2022-10-12T14:27:57.600Z,73.90
2022-10-12T14:30:28.741Z,73.96
2022-10-12T14:33:17.026Z,73.96
2022-10-12T14:35:46.620Z,75.85
2022-10-12T14:38:38.325Z,76.24
2022-10-12T14:41:29.777Z,75.75
2022-10-12T14:44:17.632Z,77.01
2022-10-12T14:46:52.410Z,79.59
2022-10-12T14:49:22.492Z,78.95
2022-10-12T14:51:50.493Z,78.29
2022-10-12T14:54:16.925Z,80.37
2022-10-12T14:56:43.393Z,79.40
2022-10-12T14:59:09.922Z,78.48
2022-10-12T15:01:40.945Z,78.72
2022-10-12T15:04:12.745Z,78.09
2022-10-12T15:06:39.754Z,77.95
2022-10-12T15:09:06.299Z,77.46
2022-10-12T15:11:32.873Z,78.74
2022-10-12T15:13:59.418Z,79.42
2022-10-12T15:16:28.608Z,78.48
2022-10-12T15:18:55.062Z,77.57
2022-10-12T15:21:21.529Z,78.44
2022-10-12T15:23:48.025Z,79.28
2022-10-12T15:26:17.608Z,78.65
2022-10-12T15:28:45.114Z,78.51
2022-10-12T15:31:18.561Z,79.61
2022-10-12T15:33:45.770Z,80.46
2022-10-12T15:36:12.269Z,80.28
2022-10-12T15:38:39.088Z,80.60
2022-10-12T15:41:05.865Z,82.24
2022-10-12T15:43:33.764Z,83.87
2022-10-12T15:46:02.217Z,85.13
2022-10-12T15:48:29.000Z,85.66
2022-10-12T15:50:55.691Z,87.47
2022-10-12T15:53:24.713Z,88.67
2022-10-12T15:55:55.681Z,89.92
2022-10-12T15:58:22.400Z,92.82
2022-10-12T16:00:49.530Z,92.26
2022-10-12T16:03:24.585Z,90.66
2022-10-12T16:05:51.913Z,90.08
2022-10-12T16:08:18.412Z,91.38
2022-10-12T16:10:46.085Z,93.33
2022-10-12T16:13:13.882Z,92.11
2022-10-12T16:15:41.771Z,93.16
2022-10-12T16:18:08.928Z,95.12
2022-10-12T16:20:37.485Z,97.47
2022-10-12T16:23:07.736Z,97.80
2022-10-12T16:25:35.015Z,96.39
2022-10-12T16:28:01.487Z,95.12
2022-10-12T16:30:27.988Z,97.20
2022-10-12T16:32:54.575Z,96.17
2022-10-12T16:35:21.475Z,95.74
2022-10-12T16:37:48.320Z,94.54
2022-10-12T16:40:15.762Z,95.76
2022-10-12T16:42:42.781Z,96.77
2022-10-12T16:45:09.677Z,96.64
2022-10-12T16:47:41.923Z,99.61
2022-10-12T16:50:10.073Z,100.00
2022-10-12T16:52:36.582Z,99.21
2022-10-12T16:55:03.247Z,98.27
2022-10-12T16:57:29.700Z,100.00
2022-10-12T16:59:56.337Z,100.00
2022-10-12T17:02:22.813Z,100.00
2022-10-12T17:04:49.305Z,99.26
2022-10-12T17:07:16.313Z,100.00
2022-10-12T17:09:42.892Z,100.00
2022-10-12T17:12:09.710Z,100.00
2022-10-12T17:14:36.237Z,100.00
2022-10-12T17:17:02.949Z,100.00
2022-10-12T17:19:32.343Z,100.00
2022-10-12T17:22:01.103Z,100.00
2022-10-12T17:24:29.679Z,100.00
2022-10-12T17:26:57.521Z,100.00
2022-10-12T17:29:26.304Z,100.00
2022-10-12T17:31:54.896Z,100.00
2022-10-12T17:34:24.282Z,100.00
2022-10-12T17:36:52.273Z,100.00
2022-10-12T17:39:19.089Z,100.00
2022-10-12T17:41:45.785Z,100.00
2022-10-12T17:44:12.326Z,100.00
2022-10-12T17:46:39.903Z,100.00
2022-10-12T17:49:07.878Z,100.00
2022-10-12T17:51:34.403Z,100.00
2022-10-12T17:54:01.320Z,100.00
2022-10-12T17:56:28.017Z,100.00
2022-10-12T17:59:01.007Z,100.00
2022-10-12T18:01:30.052Z,100.00
2022-10-12T18:04:00.329Z,100.00
2022-10-12T18:06:27.056Z,100.00
2022-10-12T18:08:53.638Z,100.00
2022-10-12T18:11:21.281Z,100.00
2022-10-12T18:13:49.923Z,100.00
2022-10-12T18:16:18.752Z,100.00
2022-10-12T18:18:45.460Z,100.00
2022-10-12T18:21:14.058Z,100.00
2022-10-12T18:23:41.011Z,100.00
2022-10-12T18:26:09.892Z,100.00
2022-10-12T18:28:37.525Z,100.00
2022-10-12T18:31:04.820Z,100.00
2022-10-12T18:33:31.889Z,100.00
2022-10-12T18:36:06.256Z,100.00
2022-10-12T18:38:33.918Z,100.00
2022-10-12T18:41:08.427Z,100.00
2022-10-12T18:43:35.056Z,100.00
2022-10-12T18:46:09.548Z,100.00
2022-10-12T18:48:36.299Z,100.00
2022-10-12T18:51:07.992Z,100.00
2022-10-12T18:53:35.309Z,100.00
2022-10-12T18:56:04.022Z,100.00
2022-10-12T18:58:31.300Z,100.00
2022-10-12T19:00:58.163Z,100.00
2022-10-12T19:03:25.656Z,100.00
2022-10-12T19:05:52.525Z,100.00
2022-10-12T19:08:19.172Z,100.00
2022-10-12T19:10:45.711Z,100.00
2022-10-12T19:13:12.283Z,100.00
2022-10-12T19:15:38.972Z,100.00
2022-10-12T19:18:05.915Z,100.00
2022-10-12T19:20:35.606Z,100.00
2022-10-12T19:23:02.172Z,100.00
2022-10-12T19:25:28.641Z,100.00
2022-10-12T19:27:55.133Z,100.00
2022-10-12T19:30:21.638Z,100.00
2022-10-12T19:32:48.711Z,100.00
2022-10-12T19:35:15.333Z,100.00
2022-10-12T19:37:41.768Z,100.00
2022-10-12T19:40:12.360Z,100.00
2022-10-12T19:42:38.932Z,100.00
2022-10-12T19:45:05.813Z,100.00
2022-10-12T19:47:32.444Z,100.00
2022-10-12T19:49:58.896Z,100.00
2022-10-12T19:52:25.419Z,100.00
2022-10-12T19:54:51.991Z,100.00
2022-10-12T19:57:18.480Z,100.00
2022-10-12T19:59:44.980Z,100.00
2022-10-12T20:02:11.805Z,100.00
2022-10-12T20:04:38.343Z,100.00
2022-10-12T20:07:04.820Z,100.00
2022-10-12T20:09:31.364Z,100.00
2022-10-12T20:11:57.857Z,100.00
2022-10-12T20:14:25.639Z,100.00
2022-10-12T20:16:52.372Z,100.00
2022-10-12T20:19:18.895Z,100.00
2022-10-12T20:21:45.381Z,100.00
2022-10-12T20:24:11.881Z,100.00
2022-10-12T20:26:40.917Z,100.00
2022-10-12T20:29:07.478Z,100.00
2022-10-12T20:31:34.013Z,100.00
2022-10-12T20:34:00.533Z,100.00
2022-10-12T20:36:29.991Z,100.00
2022-10-12T20:38:58.105Z,100.00
2022-10-12T20:41:25.651Z,100.00
2022-10-12T20:44:00.188Z,100.00
2022-10-12T20:46:28.606Z,100.00
2022-10-12T20:48:58.821Z,100.00
2022-10-12T20:51:28.802Z,100.00
2022-10-12T20:53:58.825Z,100.00
2022-10-12T20:56:30.988Z,100.00
2022-10-12T20:58:58.399Z,100.00
2022-10-12T21:01:28.484Z,100.00
2022-10-12T21:03:55.302Z,100.00
2022-10-12T21:06:23.469Z,100.00
2022-10-12T21:08:51.642Z,100.00
2022-10-12T21:11:18.427Z,100.00
2022-10-12T21:13:46.053Z,100.00
2022-10-12T21:16:13.910Z,100.00
2022-10-12T21:18:40.923Z,100.00
2022-10-12T21:21:12.204Z,100.00
2022-10-12T21:23:44.183Z,100.00
2022-10-12T21:26:13.057Z,100.00
2022-10-12T21:28:39.762Z,100.00
2022-10-12T21:31:07.267Z,100.00
2022-10-12T21:33:37.313Z,100.00
2022-10-12T21:36:16.582Z,100.00
2022-10-12T21:38:43.476Z,100.00
2022-10-12T21:41:11.750Z,100.00
2022-10-12T21:43:39.150Z,100.00
2022-10-12T21:46:08.935Z,100.00
2022-10-12T21:48:36.085Z,100.00
2022-10-12T21:51:03.559Z,100.00
2022-10-12T21:53:30.892Z,100.00
2022-10-12T21:55:57.877Z,100.00
2022-10-12T21:58:24.428Z,100.00
2022-10-12T22:00:51.039Z,100.00
2022-10-12T22:03:17.779Z,100.00
2022-10-12T22:05:44.664Z,100.00
2022-10-12T22:08:11.405Z,100.00
2022-10-12T22:10:39.266Z,100.00
2022-10-12T22:13:07.058Z,100.00
2022-10-12T22:15:34.955Z,100.00
2022-10-12T22:18:09.794Z,100.00
2022-10-12T22:20:37.395Z,100.00
2022-10-12T22:23:04.482Z,100.00
2022-10-12T22:25:30.976Z,100.00
2022-10-12T22:28:00.427Z,100.00
2022-10-12T22:30:29.024Z,100.00
2022-10-12T22:32:55.486Z,100.00
2022-10-12T22:35:22.122Z,100.00
2022-10-12T22:37:48.806Z,100.00
2022-10-12T22:40:15.408Z,100.00
2022-10-12T22:42:41.968Z,100.00
2022-10-12T22:45:09.150Z,100.00
2022-10-12T22:47:35.637Z,100.00
2022-10-12T22:50:02.948Z,100.00
2022-10-12T22:52:29.424Z,100.00
2022-10-12T22:54:55.912Z,100.00
2022-10-12T22:57:22.429Z,100.00
2022-10-12T22:59:50.201Z,100.00
2022-10-12T23:02:17.024Z,100.00
2022-10-12T23:04:43.873Z,100.00
2022-10-12T23:07:10.400Z,100.00
2022-10-12T23:09:36.906Z,100.00
2022-10-12T23:12:03.541Z,100.00
2022-10-12T23:14:30.480Z,100.00
2022-10-12T23:16:56.925Z,100.00
2022-10-12T23:19:26.309Z,100.00
2022-10-12T23:21:52.747Z,100.00
2022-10-12T23:24:19.313Z,100.00
2022-10-12T23:26:45.815Z,100.00
2022-10-12T23:29:12.352Z,100.00
2022-10-12T23:31:38.931Z,100.00
2022-10-12T23:34:06.410Z,100.00
2022-10-12T23:36:34.222Z,100.00
2022-10-12T23:39:02.315Z,100.00
2022-10-12T23:41:28.898Z,100.00
2022-10-12T23:43:55.408Z,100.00
2022-10-12T23:46:21.900Z,100.00
2022-10-12T23:48:48.342Z,100.00
2022-10-12T23:51:14.850Z,100.00
2022-10-12T23:53:42.559Z,100.00
2022-10-12T23:56:09.825Z,100.00
2022-10-12T23:58:36.634Z,100.00
